Time;durP1;ratioP1;P1;durP2;ratioP2;P2;SDS_P1;SDS_P2;PMS_P1;PMS_P2;Temp;Humidity;BMP_temperature;BMP_pressure;BME280_temperature;BME280_humidity;BME280_pressure;Samples;Min_cycle;Max_cycle;Signal;HPM_P1;HPM_P2
2021/05/02 00:02:33;;;;;;;2.40;0.40;;;;;;;6.23;89.04;91573.44;6262064;22;20053;-91
2021/05/02 00:05:26;;;;;;;;;;;;;;;;;;;;;
2021/05/02 00:08:27;;;;;;;;;;;;;;;;;;;;;
2021/05/02 00:11:03;;;;;;;0.50;0.50;;;;;;;6.13;89.60;91571.78;6307405;22;20037;-91
2021/05/02 00:14:01;;;;;;;0.30;0.30;;;;;;;6.15;86.83;91579.28;6280368;22;20050;-91
2021/05/02 00:16:56;;;;;;;;;;;;;;;;;;;;;
2021/05/02 00:19:50;;;;;;;2.20;0.40;;;;;;;6.15;88.45;91584.50;6280560;22;20019;-91
2021/05/02 00:22:41;;;;;;;;;;;;;;;;;;;;;
2021/05/02 00:25:31;;;;;;;0.40;0.40;;;;;;;6.09;88.44;91590.78;6287149;22;20102;-90
2021/05/02 00:28:49;;;;;;;0.57;0.40;;;;;;;6.09;88.15;91593.41;6308832;22;20514;-91
2021/05/02 00:31:45;;;;;;;;;;;;;;;;;;;;;
2021/05/02 00:34:55;;;;;;;;;;;;;;;;;;;;;
2021/05/02 00:37:36;;;;;;;0.52;0.50;;;;;;;6.22;88.95;91616.09;6281872;22;20031;-91
2021/05/02 00:40:59;;;;;;;2.38;0.50;;;;;;;6.30;89.41;91618.03;6235983;22;20015;-90
2021/05/02 00:43:49;;;;;;;2.58;0.70;;;;;;;6.13;89.76;91597.75;6281606;22;20011;-90
2021/05/02 00:46:48;;;;;;;0.68;0.68;;;;;;;6.16;90.78;91596.41;6241011;22;20020;-90
2021/05/02 00:50:09;;;;;;;;;;;;;;;;;;;;;
2021/05/02 00:57:07;;;;;;;;;;;;;;;;;;;;;
2021/05/02 00:59:54;;;;;;;;;;;;;;;;;;;;;
2021/05/02 01:02:44;;;;;;;;;;;;;;;;;;;;;
2021/05/02 01:05:49;;;;;;;;;;;;;;;;;;;;;
2021/05/02 01:09:02;;;;;;;0.40;0.40;;;;;;;6.20;85.88;91603.38;6290934;22;20119;-90
2021/05/02 01:11:46;;;;;;;0.47;0.40;;;;;;;6.38;83.25;91619.25;6285186;22;20049;-90
2021/05/02 01:14:43;;;;;;;0.30;0.30;;;;;;;6.42;84.33;91630.66;6311304;22;20038;-90
2021/05/02 01:20:27;;;;;;;;;;;;;;;;;;;;;
2021/05/02 01:23:09;;;;;;;0.30;0.30;;;;;;;6.37;81.86;91610.69;6310914;22;20075;-90
2021/05/02 01:25:38;;;;;;;0.40;0.40;;;;;;;6.32;82.77;91605.53;6337306;22;20118;-90
2021/05/02 01:31:49;;;;;;;1.38;0.40;;;;;;;6.62;78.47;91642.56;6312026;22;20007;-90
2021/05/02 01:34:27;;;;;;;0.30;0.30;;;;;;;6.68;78.17;91625.84;6309159;22;19995;-90
2021/05/02 01:37:18;;;;;;;;;;;;;;;;;;;;;
2021/05/02 01:43:24;;;;;;;;;;;;;;;;;;;;;
2021/05/02 01:45:58;;;;;;;0.77;0.38;;;;;;;6.58;74.09;91608.56;6286451;22;20007;-91
2021/05/02 01:52:18;;;;;;;;;;;;;;;;;;;;;
2021/05/02 01:55:09;;;;;;;0.70;0.30;;;;;;;6.61;74.69;91612.44;6307366;22;20007;-90
2021/05/02 01:57:57;;;;;;;;;;;;;;;7.02;73.56;91658.66;6260663;22;20086;-90
2021/05/02 02:04:10;;;;;;;;;;;;;;;;;;;;;
2021/05/02 02:06:56;;;;;;;0.38;0.32;;;;;;;6.80;72.57;91647.00;6307362;22;20037;-89
2021/05/02 02:10:33;;;;;;;0.30;0.30;;;;;;;6.72;73.23;91621.63;6311804;22;20014;-91
2021/05/02 02:13:12;;;;;;;;;;;;;;;;;;;;;
2021/05/02 02:16:13;;;;;;;0.43;0.43;;;;;;;6.73;71.74;91630.97;6306962;22;20026;-90
2021/05/02 02:22:17;;;;;;;2.03;0.45;;;;;;;6.72;70.21;91624.22;6290868;22;20045;-91
2021/05/02 02:25:03;;;;;;;0.40;0.40;;;;;;;6.66;71.55;91620.94;6266501;22;20516;-90
2021/05/02 02:31:26;;;;;;;;;;;;;;;;;;;;;
2021/05/02 02:33:57;;;;;;;0.30;0.30;;;;;;;6.67;70.94;91616.50;6282426;22;20098;-90
2021/05/02 02:36:40;;;;;;;0.30;0.30;;;;;;;6.74;69.39;91616.91;6257349;22;20033;-90
2021/05/02 02:39:39;;;;;;;;;;;;;;;;;;;;;
2021/05/02 02:42:23;;;;;;;0.45;0.45;;;;;;;6.68;68.77;91621.41;6282189;22;20080;-89
2021/05/02 02:45:18;;;;;;;0.40;0.40;;;;;;;6.96;69.45;91662.38;6257899;22;20015;-90
2021/05/02 02:48:30;;;;;;;0.38;0.38;;;;;;;6.82;68.28;91633.72;6284638;22;20019;-89
2021/05/02 02:51:25;;;;;;;0.52;0.40;;;;;;;6.95;68.10;91647.81;6304435;22;20265;-90
2021/05/02 02:53:55;;;;;;;1.77;0.40;;;;;;;6.87;67.83;91633.66;6281048;22;20435;-90
2021/05/02 03:00:28;;;;;;;0.40;0.40;;;;;;;6.86;69.23;91609.44;6298790;22;20442;-90
2021/05/02 03:03:31;;;;;;;0.40;0.40;;;;;;;7.11;68.32;91656.16;6232351;22;20122;-91
2021/05/02 03:10:04;;;;;;;2.17;0.47;;;;;;;6.74;68.82;91610.94;6303401;22;20090;-90
2021/05/02 03:12:57;;;;;;;0.45;0.35;;;;;;;6.90;68.24;91622.66;6256365;22;20459;-90
2021/05/02 03:15:49;;;;;;;;;;;;;;;;;;;;;
2021/05/02 03:19:26;;;;;;;1.83;0.40;;;;;;;6.92;69.62;91643.19;6298515;22;20015;-90
2021/05/02 03:22:55;;;;;;;1.42;0.43;;;;;;;6.59;69.33;91609.34;6283089;22;20082;-89
2021/05/02 03:26:00;;;;;;;;;;;;;;;;;;;;;
2021/05/02 03:32:37;;;;;;;;;;;;;;;;;;;;;
2021/05/02 03:35:39;;;;;;;0.50;0.50;;;;;;;6.56;66.02;91615.88;6287988;22;20170;-90
2021/05/02 03:38:27;;;;;;;0.40;0.40;;;;;;;6.92;62.99;91658.81;6237836;22;20019;-89
2021/05/02 03:41:04;;;;;;;0.50;0.50;;;;;;;6.71;63.14;91627.91;6279286;22;20035;-90
2021/05/02 03:44:04;;;;;;;0.90;0.70;;;;;;;6.78;64.59;91636.13;6276345;22;20343;-90
2021/05/02 03:46:58;;;;;;;1.10;0.70;;;;;;;6.69;66.53;91648.22;6287755;22;20025;-90
2021/05/02 03:50:10;;;;;;;1.58;0.50;;;;;;;6.78;64.15;91656.94;6282508;22;20071;-90
2021/05/02 03:52:43;;;;;;;0.63;0.50;;;;;;;6.66;65.09;91625.34;6279808;22;20008;-90
2021/05/02 03:55:19;;;;;;;0.30;0.30;;;;;;;6.67;63.66;91614.69;6282061;22;20095;-90
2021/05/02 03:58:23;;;;;;;4.20;0.55;;;;;;;7.06;63.76;91659.63;6292319;22;20451;-90
2021/05/02 04:01:07;;;;;;;0.40;0.40;;;;;;;6.87;60.31;91620.63;6235896;22;20503;-90
2021/05/02 04:03:44;;;;;;;0.35;0.35;;;;;;;6.96;60.64;91618.94;6281357;22;20035;-90
2021/05/02 04:06:32;;;;;;;0.43;0.43;;;;;;;6.98;62.06;91627.22;6282459;22;20072;-90
2021/05/02 04:09:49;;;;;;;2.30;0.57;;;;;;;7.32;59.89;91664.41;6258088;22;20019;-90
2021/05/02 04:12:53;;;;;;;;;;;;;;;7.30;61.16;91662.88;6296401;22;20090;-90
2021/05/02 04:15:47;;;;;;;0.50;0.50;;;;;;;7.09;60.24;91628.63;6307075;22;19989;-90
2021/05/02 04:18:51;;;;;;;;;;;;;;;;;;;;;
2021/05/02 04:21:52;;;;;;;;;;;;;;;;;;;;;
2021/05/02 04:24:50;;;;;;;0.75;0.40;;;;;;;7.22;61.39;91684.34;6270280;22;20020;-90
2021/05/02 04:28:02;;;;;;;0.88;0.50;;;;;;;7.04;61.06;91667.72;6253021;22;20083;-90
2021/05/02 04:30:58;;;;;;;0.40;0.40;;;;;;;7.25;58.27;91694.22;6244312;22;20095;-90
2021/05/02 04:33:35;;;;;;;0.95;0.40;;;;;;;7.23;59.23;91691.13;6246348;22;20019;-90
2021/05/02 04:36:12;;;;;;;0.50;0.50;;;;;;;7.03;59.32;91675.81;6252310;22;20433;-90
2021/05/02 04:38:54;;;;;;;0.45;0.45;;;;;;;7.07;58.57;91676.81;6307417;22;20014;-90
2021/05/02 04:42:03;;;;;;;0.38;0.38;;;;;;;7.17;60.39;91691.47;6260282;22;20026;-90
2021/05/02 04:48:04;;;;;;;0.40;0.40;;;;;;;7.14;59.30;91687.63;6234622;22;20023;-89
2021/05/02 04:51:06;;;;;;;;;;;;;;;;;;;;;
2021/05/02 04:56:53;;;;;;;0.50;0.47;;;;;;;7.57;59.26;91723.91;6244520;22;20020;-90
2021/05/02 05:00:05;;;;;;;0.30;0.30;;;;;;;7.77;61.19;91755.88;6256336;22;20031;-90
2021/05/02 05:03:07;;;;;;;0.60;0.60;;;;;;;7.50;61.38;91715.69;6253440;22;20020;-90
2021/05/02 05:05:57;;;;;;;0.40;0.40;;;;;;;7.52;61.77;91716.19;6268792;22;20110;-90
2021/05/02 05:12:42;;;;;;;;;;;;;;;;;;;;;
2021/05/02 05:22:10;;;;;;;0.40;0.40;;;;;;;8.37;57.39;91783.78;6303437;22;20506;-90
2021/05/02 05:25:12;;;;;;;1.58;0.70;;;;;;;8.47;59.26;91784.41;6253400;22;20039;-90
2021/05/02 05:28:05;;;;;;;0.40;0.40;;;;;;;8.73;53.02;91797.72;6251892;22;20019;-90
2021/05/02 05:31:02;;;;;;;0.40;0.40;;;;;;;8.76;53.57;91799.00;6262125;22;20106;-89
2021/05/02 05:34:24;;;;;;;;;;;;;;;;;;;;;
2021/05/02 05:37:18;;;;;;;0.40;0.40;;;;;;;8.93;55.01;91814.81;6262356;22;20090;-93
2021/05/02 05:40:08;;;;;;;0.40;0.40;;;;;;;9.05;53.28;91819.56;6228252;22;20019;-91
2021/05/02 05:43:03;;;;;;;;;;;;;;;;;;;;;
2021/05/02 05:46:03;;;;;;;3.03;0.50;;;;;;;8.91;52.03;91787.47;6257071;22;20034;-92
2021/05/02 05:48:58;;;;;;;1.05;0.40;;;;;;;9.18;52.89;91812.75;6284403;22;20599;-93
2021/05/02 05:52:04;;;;;;;0.40;0.40;;;;;;;9.11;54.00;91807.16;6255062;22;20023;-91
2021/05/02 05:55:19;;;;;;;;;;;;;;;;;;;;;
2021/05/02 05:58:34;;;;;;;;;;;;;;;;;;;;;
2021/05/02 06:02:04;;;;;;;;;;;;;;;;;;;;;
2021/05/02 06:08:48;;;;;;;;;;;;;;;;;;;;;
2021/05/02 06:11:55;;;;;;;;;;;;;;;;;;;;;
2021/05/02 06:15:15;;;;;;;0.50;0.50;;;;;;;11.04;46.45;91810.66;6305246;22;20106;-93
2021/05/02 06:17:51;;;;;;;0.38;0.38;;;;;;;10.60;43.32;91810.53;6253477;22;20011;-92
2021/05/02 06:20:57;;;;;;;;;;;;;;;;;;;;;
2021/05/02 06:23:56;;;;;;;0.52;0.52;;;;;;;10.85;43.54;91829.22;6283137;22;20031;-92
2021/05/02 06:26:29;;;;;;;0.43;0.43;;;;;;;10.47;46.19;91834.13;6252923;22;20007;-92
2021/05/02 06:29:03;;;;;;;0.35;0.35;;;;;;;10.77;43.48;91848.28;6254132;22;20446;-92
2021/05/02 06:31:59;;;;;;;;;;;;;;;;;;;;;
2021/05/02 06:34:58;;;;;;;0.57;0.40;;;;;;;12.71;40.95;91878.50;6296697;22;20022;-92
2021/05/02 06:38:24;;;;;;;0.70;0.70;;;;;;;13.68;37.67;91834.94;6258931;22;20107;-93
2021/05/02 06:41:36;;;;;;;;;;;;;;;;;;;;;
2021/05/02 06:44:52;;;;;;;0.80;0.50;;;;;;;13.54;36.08;91845.72;6291762;22;20023;-92
2021/05/02 06:51:31;;;;;;;0.30;0.30;;;;;;;14.47;35.88;91877.94;6282917;22;20023;-92
2021/05/02 07:00:59;;;;;;;0.52;0.43;;;;;;;13.27;35.58;91889.75;6246201;22;20023;-90
2021/05/02 07:03:42;;;;;;;;;;;;;;;;;;;;;
2021/05/02 07:07:00;;;;;;;0.68;0.55;;;;;;;12.52;39.94;91864.97;6303679;22;20023;-91
2021/05/02 07:10:13;;;;;;;;;;;;;;;;;;;;;
2021/05/02 07:13:14;;;;;;;0.77;0.50;;;;;;;12.94;39.19;91858.03;6284907;22;20039;-92
2021/05/02 07:15:58;;;;;;;0.40;0.40;;;;;;;13.47;38.88;91846.22;6259888;22;20380;-92
2021/05/02 07:22:07;;;;;;;;;;;;;;;;;;;;;
2021/05/02 07:25:37;;;;;;;0.40;0.40;;;;;;;14.00;38.71;91861.63;6298531;22;20094;-92
2021/05/02 07:35:53;;;;;;;0.52;0.40;;;;;;;14.19;36.06;91885.63;6283992;22;20090;-91
2021/05/02 07:39:36;;;;;;;0.32;0.30;;;;;;;14.21;38.44;91898.44;6244223;22;20094;-91
2021/05/02 07:46:03;;;;;;;0.45;0.40;;;;;;;14.12;36.00;91880.13;6286830;22;20019;-93
2021/05/02 07:49:22;;;;;;;0.50;0.50;;;;;;;13.10;37.71;91880.09;6304525;22;20098;-91
2021/05/02 07:52:18;;;;;;;0.30;0.30;;;;;;;13.49;36.76;91901.88;6280765;22;20447;-90
2021/05/02 07:55:31;;;;;;;;;;;;;;;;;;;;;
2021/05/02 08:02:23;;;;;;;;;;;;;;;;;;;;;
2021/05/02 08:05:13;;;;;;;;;;;;;;;;;;;;;
2021/05/02 08:12:00;;;;;;;0.57;0.52;;;;;;;14.10;35.49;91913.88;6288474;22;20083;-92
2021/05/02 08:15:56;;;;;;;1.35;0.40;;;;;;;14.80;32.92;91908.03;6270098;22;20019;-92
2021/05/02 08:19:08;;;;;;;;;;;;;;;;;;;;;
2021/05/02 08:22:54;;;;;;;3.55;0.30;;;;;;;16.02;33.52;91923.94;6270246;22;20026;-92
2021/05/02 08:29:30;;;;;;;0.30;0.30;;;;;;;15.72;34.45;91925.31;6284916;22;20054;-91
2021/05/02 08:32:29;;;;;;;0.88;0.40;;;;;;;16.21;30.05;91962.19;6286346;22;20130;-94
2021/05/02 08:35:42;;;;;;;0.30;0.30;;;;;;;15.60;28.67;91918.91;6275211;22;20022;-91
2021/05/02 08:42:10;;;;;;;1.83;0.50;;;;;;;15.77;31.18;91933.00;6272164;22;20016;-91
2021/05/02 08:45:14;;;;;;;1.48;0.47;;;;;;;15.13;33.90;91953.59;6273809;22;20408;-91
2021/05/02 08:48:13;;;;;;;0.32;0.32;;;;;;;15.70;33.53;91970.44;6268993;22;20047;-91
2021/05/02 08:58:26;;;;;;;0.50;0.50;;;;;;;15.19;33.86;91962.03;6213889;23;20116;-92
2021/05/02 09:01:58;;;;;;;1.83;0.40;;;;;;;14.54;32.17;91930.88;6188135;23;20517;-92
2021/05/02 09:05:28;;;;;;;0.60;0.60;;;;;;;14.39;32.81;91931.47;6264215;22;20098;-89
2021/05/02 09:09:03;;;;;;;0.45;0.40;;;;;;;14.31;31.60;91982.31;6254232;22;20086;-91
2021/05/02 09:12:43;;;;;;;0.40;0.40;;;;;;;14.65;31.53;91983.19;6231809;22;20317;-90
2021/05/02 09:16:03;;;;;;;1.15;0.50;;;;;;;14.92;35.30;91952.84;6203675;22;20012;-91
2021/05/02 09:19:35;;;;;;;;;;;;;;;;;;;;;
2021/05/02 09:26:52;;;;;;;0.65;0.40;;;;;;;15.84;32.92;91985.22;6195633;22;20026;-90
2021/05/02 09:33:57;;;;;;;;;;;;;;;;;;;;;
2021/05/02 09:37:27;;;;;;;;;;;;;;;;;;;;;
2021/05/02 09:40:34;;;;;;;0.68;0.60;;;;;;;14.17;32.03;91966.78;6242777;22;20047;-89
2021/05/02 09:43:25;;;;;;;2.40;0.50;;;;;;;14.49;31.77;91972.44;6236153;22;20019;-93
2021/05/02 09:46:50;;;;;;;;;;;;;;;;;;;;;
2021/05/02 09:50:30;;;;;;;;;;;;;;;;;;;;;
2021/05/02 09:53:58;;;;;;;0.60;0.60;;;;;;;14.75;34.13;91995.97;6285917;22;20518;-94
2021/05/02 09:57:08;;;;;;;1.60;0.40;;;;;;;14.99;28.95;91984.72;6271545;22;20090;-93
2021/05/02 10:00:45;;;;;;;;;;;;;;;;;;;;;
2021/05/02 12:04:41;;;;;;;;;;;;;;;;;;;;;
2021/05/02 12:07:52;;;;;;;;;;;;;;;;;;;;;
2021/05/02 12:10:59;;;;;;;0.50;0.50;;;;;;;15.30;27.63;92037.00;6250960;22;20081;-94
2021/05/02 12:13:53;;;;;;;1.25;0.77;;;;;;;15.03;27.76;92000.66;6225641;22;20254;-93
2021/05/02 12:17:09;;;;;;;;;;;;;;;;;;;;;
2021/05/02 12:23:58;;;;;;;;;;;;;;;;;;;;;
2021/05/02 12:30:58;;;;;;;;;;;;;;;;;;;;;
2021/05/02 12:34:50;;;;;;;4.43;1.50;;;;;;;15.06;30.62;92047.44;6228895;23;20567;-90
2021/05/02 12:38:17;;;;;;;1.33;0.88;;;;;;;15.90;25.90;92050.66;6272890;22;20069;-91
2021/05/02 12:42:07;;;;;;;;;;;;;;;;;;;;;
2021/05/02 12:45:01;;;;;;;;;;;;;;;16.15;28.38;92037.47;6272251;22;20073;-92
2021/05/02 12:48:39;;;;;;;0.32;0.32;;;;;;;15.60;30.14;92002.53;6250571;22;19915;-94
2021/05/02 12:52:06;;;;;;;;;;;;;;;;;;;;;
2021/05/02 12:55:21;;;;;;;1.23;0.75;;;;;;;16.36;26.97;92000.34;6175086;23;20063;-94
2021/05/02 12:58:21;;;;;;;0.73;0.70;;;;;;;16.84;26.48;92010.06;6194571;23;20013;-94
2021/05/02 13:05:00;;;;;;;0.93;0.60;;;;;;;16.70;26.73;92036.03;6180962;22;20017;-93
2021/05/02 13:12:09;;;;;;;;;;;;;;;;;;;;;
2021/05/02 13:15:13;;;;;;;0.38;0.38;;;;;;;16.51;25.10;92006.81;6308518;22;20086;-94
2021/05/02 13:18:18;;;;;;;1.13;0.60;;;;;;;16.68;27.42;92006.53;6281977;22;20102;-93
2021/05/02 13:32:17;;;;;;;;;;;;;;;;;;;;;
2021/05/02 13:35:43;;;;;;;0.32;0.32;;;;;;;15.94;26.37;92027.78;6215190;23;20017;-93
2021/05/02 13:38:35;;;;;;;2.97;1.38;;;;;;;15.92;28.29;92011.50;6246554;23;20024;-93
2021/05/02 13:45:37;;;;;;;;;;;;;;;;;;;;;
2021/05/02 13:48:36;;;;;;;;;;;;;;;;;;;;;
2021/05/02 13:58:42;;;;;;;0.65;0.50;;;;;;;14.99;27.29;92059.31;6227489;23;20056;-95
2021/05/02 14:05:15;;;;;;;;;;;;;;;;;;;;;
2021/05/02 14:08:41;;;;;;;;;;;;;;;;;;;;;
2021/05/02 14:15:37;;;;;;;2.42;1.55;;;;;;;14.89;27.85;92058.94;6211901;23;20419;-94
2021/05/02 14:22:48;;;;;;;0.98;0.77;;;;;;;14.65;27.11;92049.78;6222694;23;20094;-92
2021/05/02 14:30:05;;;;;;;0.85;0.60;;;;;;;14.88;27.42;92044.19;6202865;23;20035;-93
2021/05/02 14:32:52;;;;;;;2.08;1.20;;;;;;;15.28;26.80;92076.09;6216180;23;20182;-94
2021/05/02 14:35:47;;;;;;;1.15;0.73;;;;;;;15.13;26.99;92031.88;6181059;23;20047;-95
2021/05/02 14:39:22;;;;;;;;;;;;;;;;;;;;;
2021/05/02 14:42:39;;;;;;;;;;;;;;;;;;;;;
2021/05/02 14:52:39;;;;;;;0.63;0.63;;;;;;;15.20;26.97;92093.53;6149498;23;20024;-93
2021/05/02 14:55:52;;;;;;;1.90;0.93;;;;;;;14.98;28.08;92062.25;6154970;23;20095;-93
2021/05/02 14:59:22;;;;;;;1.40;0.82;;;;;;;14.98;26.98;92078.06;6206263;23;20016;-94
2021/05/02 15:02:26;;;;;;;;;;;;;;;;;;;;;
2021/05/02 15:09:06;;;;;;;0.75;0.70;;;;;;;14.61;29.85;92085.00;6176693;23;20654;-92
2021/05/02 15:12:30;;;;;;;;;;;;;;;;;;;;;
2021/05/02 15:15:37;;;;;;;0.75;0.68;;;;;;;14.85;28.38;92084.38;6219434;23;20016;-91
2021/05/02 15:18:44;;;;;;;0.73;0.63;;;;;;;14.73;27.79;92082.44;6240192;23;20016;-91
2021/05/02 15:21:50;;;;;;;1.33;0.82;;;;;;;14.92;28.29;92074.09;6245556;23;20463;-93
2021/05/02 15:25:20;;;;;;;2.80;1.27;;;;;;;15.31;27.01;92086.00;6239360;23;20020;-91
2021/05/02 15:28:33;;;;;;;0.70;0.60;;;;;;;15.29;27.02;92088.19;6153620;23;20092;-94
2021/05/02 15:31:37;;;;;;;0.93;0.63;;;;;;;14.83;27.38;92107.63;6157982;23;20020;-94
2021/05/02 15:34:46;;;;;;;0.40;0.40;;;;;;;14.23;25.88;92081.34;6152261;23;20035;-94
2021/05/02 15:40:51;;;;;;;9.65;4.75;;;;;;;13.84;27.64;92098.97;6239742;23;20020;-94
2021/05/02 15:44:13;;;;;;;0.40;0.40;;;;;;;14.01;27.51;92134.22;6221621;23;20012;-95
2021/05/02 15:47:07;;;;;;;0.85;0.55;;;;;;;13.60;27.21;92093.47;6209833;22;20317;-93
2021/05/02 15:50:11;;;;;;;4.53;1.23;;;;;;;13.57;29.05;92123.03;6245377;22;20029;-94
2021/05/02 15:53:26;;;;;;;16.65;8.35;;;;;;;13.48;29.00;92099.38;6154475;23;20105;-94
2021/05/02 15:56:40;;;;;;;4.97;2.63;;;;;;;13.66;27.72;92121.16;6237978;22;20017;-93
2021/05/02 15:59:34;;;;;;;7.95;3.67;;;;;;;13.80;29.07;92121.72;6221428;23;20097;-93
2021/05/02 16:02:58;;;;;;;;;;;;;;;;;;;;;
2021/05/02 16:09:45;;;;;;;0.60;0.52;;;;;;;13.90;26.71;92116.13;6252830;22;20111;-95
2021/05/02 16:12:34;;;;;;;0.68;0.68;;;;;;;13.51;26.83;92104.03;6224537;22;20097;-93
2021/05/02 16:16:12;;;;;;;0.70;0.65;;;;;;;13.48;28.54;92115.94;6211484;22;20032;-94
2021/05/02 16:22:43;;;;;;;0.82;0.70;;;;;;;13.62;26.91;92162.31;6260264;22;20231;-93
2021/05/02 16:32:49;;;;;;;1.23;0.93;;;;;;;13.75;25.50;92167.38;6151508;23;20021;-92
2021/05/02 16:43:58;;;;;;;1.02;0.80;;;;;;;13.06;26.86;92162.16;6151600;22;20991;-93
2021/05/02 16:47:34;;;;;;;;;;;;;;;;;;;;;
2021/05/02 17:07:42;;;;;;;;;;;;;;;;;;;;;
2021/05/02 17:10:45;;;;;;;3.08;1.20;;;;;;;11.96;28.35;92166.53;6005944;23;20457;-94
2021/05/02 17:14:09;;;;;;;1.48;1.15;;;;;;;12.16;28.87;92194.88;5949896;23;20088;-93
2021/05/02 17:17:09;;;;;;;3.00;0.80;;;;;;;11.79;27.31;92144.34;5985602;23;20019;-94
2021/05/02 17:20:55;;;;;;;;;;;;;;;;;;;;;
2021/05/02 17:41:37;;;;;;;;;;;;;;;;;;;;;
2021/05/02 17:44:55;;;;;;;3.28;1.23;;;;;;;11.19;27.95;92194.53;5939400;24;20074;-94
2021/05/02 20:25:57;;;;;;;0.70;0.70;;;;;;;8.28;32.91;92425.97;6170864;23;20021;-89
2021/05/02 20:28:57;;;;;;;0.93;0.63;;;;;;;8.07;33.33;92401.88;6173256;23;20519;-90
2021/05/02 20:35:05;;;;;;;3.35;0.90;;;;;;;8.17;32.92;92410.66;6228925;23;20140;-91
2021/05/02 20:37:47;;;;;;;1.00;0.90;;;;;;;8.09;33.24;92407.59;6194326;23;20075;-91
2021/05/02 20:40:45;;;;;;;0.77;0.70;;;;;;;8.29;32.98;92440.56;6246716;23;20131;-91
2021/05/02 20:43:51;;;;;;;1.02;0.80;;;;;;;8.09;33.71;92417.25;6227055;22;20092;-90
2021/05/02 20:46:41;;;;;;;0.70;0.70;;;;;;;8.00;33.53;92417.06;6237247;22;20022;-90
2021/05/02 20:49:41;;;;;;;;;;;;;;;;;;;;;
2021/05/02 20:52:25;;;;;;;;;;;;;;;;;;;;;
2021/05/02 20:58:23;;;;;;;3.10;0.88;;;;;;;7.92;33.67;92428.84;6245116;22;20010;-92
2021/05/02 21:01:43;;;;;;;1.65;1.17;;;;;;;8.03;34.17;92450.38;6268801;22;20014;-90
2021/05/02 21:04:21;;;;;;;2.05;0.93;;;;;;;7.81;34.34;92424.72;6253135;22;20048;-90
2021/05/02 21:07:31;;;;;;;;;;;;;;;;;;;;;
2021/05/02 21:10:37;;;;;;;1.90;1.10;;;;;;;8.24;34.67;92494.56;6257285;22;20035;-90
2021/05/02 21:14:03;;;;;;;;;;;;;;;;;;;;;
2021/05/02 21:17:34;;;;;;;1.52;1.08;;;;;;;7.79;35.60;92444.28;6245749;22;20020;-92
2021/05/02 21:20:41;;;;;;;1.63;1.17;;;;;;;7.70;34.69;92441.44;6174766;22;20009;-90
2021/05/02 21:23:50;;;;;;;1.17;0.67;;;;;;;8.03;33.38;92497.31;6255057;22;20055;-90
2021/05/02 21:26:42;;;;;;;0.68;0.68;;;;;;;8.02;33.88;92503.59;6248466;22;20048;-90
2021/05/02 21:29:56;;;;;;;;;;;;;;;;;;;;;
2021/05/02 21:32:27;;;;;;;1.02;0.77;;;;;;;7.68;34.19;92461.81;6153651;23;20017;-90
2021/05/02 21:35:22;;;;;;;5.95;2.50;;;;;;;8.08;33.16;92509.53;6243768;22;20505;-90
2021/05/02 21:41:15;;;;;;;1.15;0.90;;;;;;;7.64;33.08;92461.56;6222088;22;20105;-90
2021/05/02 21:44:20;;;;;;;3.78;1.67;;;;;;;7.62;33.29;92468.84;6246223;22;20097;-89
2021/05/02 21:47:22;;;;;;;0.60;0.60;;;;;;;8.04;31.74;92498.88;6231065;22;20017;-90
2021/05/02 21:53:07;;;;;;;4.63;2.00;;;;;;;7.46;36.11;92483.00;6256058;22;20014;-89
2021/05/02 21:55:50;;;;;;;0.70;0.70;;;;;;;7.70;32.49;92472.72;6229042;22;20017;-89
2021/05/02 21:58:55;;;;;;;0.82;0.77;;;;;;;7.90;32.53;92521.34;6245162;22;20019;-89
2021/05/02 22:01:47;;;;;;;0.73;0.65;;;;;;;7.70;33.23;92499.56;6237382;22;20048;-89
2021/05/02 22:04:29;;;;;;;1.40;0.70;;;;;;;7.55;32.66;92486.59;6254130;22;20028;-89
2021/05/02 22:07:07;;;;;;;1.30;0.88;;;;;;;7.76;32.31;92528.97;6229506;22;20105;-90
2021/05/02 22:09:46;;;;;;;1.67;0.90;;;;;;;7.27;34.63;92488.00;6226495;22;20020;-88
2021/05/02 22:12:25;;;;;;;1.27;0.77;;;;;;;7.05;35.62;92491.72;6230976;22;20022;-90
2021/05/02 22:15:16;;;;;;;1.55;0.80;;;;;;;6.92;37.01;92502.66;6204708;23;20026;-89
2021/05/02 22:21:55;;;;;;;1.67;0.80;;;;;;;6.88;39.00;92549.22;6164078;22;20028;-90
2021/05/02 22:24:56;;;;;;;2.58;0.80;;;;;;;6.49;39.47;92509.19;6247311;22;20404;-90
2021/05/02 22:27:41;;;;;;;1.17;1.00;;;;;;;6.38;40.29;92519.59;6113024;22;20024;-90
2021/05/02 22:30:24;;;;;;;0.68;0.65;;;;;;;6.36;38.92;92524.25;6208711;22;20021;-90
2021/05/02 22:33:19;;;;;;;1.98;0.80;;;;;;;6.31;37.99;92523.47;6205695;22;20035;-91
2021/05/02 22:36:45;;;;;;;3.22;0.90;;;;;;;6.38;37.74;92534.41;6150928;23;20096;-91
2021/05/02 22:39:33;;;;;;;0.75;0.60;;;;;;;6.53;36.38;92552.63;6151241;23;20088;-91
2021/05/02 22:42:18;;;;;;;0.80;0.80;;;;;;;6.39;37.14;92546.34;6245377;22;20433;-90
2021/05/02 22:45:20;;;;;;;;;;;;;;;;;;;;;
2021/05/02 22:48:24;;;;;;;0.73;0.73;;;;;;;6.23;39.68;92551.53;6226213;22;20025;-90
2021/05/02 22:51:39;;;;;;;;;;;;;;;;;;;;;
2021/05/02 22:54:44;;;;;;;0.98;0.88;;;;;;;6.36;38.00;92578.84;6253521;22;20025;-90
2021/05/02 22:57:56;;;;;;;0.63;0.60;;;;;;;6.27;38.24;92580.41;6233603;22;20386;-91
2021/05/02 23:01:02;;;;;;;0.80;0.80;;;;;;;6.57;36.88;92592.66;6220238;22;20025;-90
2021/05/02 23:04:22;;;;;;;1.00;0.82;;;;;;;6.36;36.87;92558.06;6220942;22;20365;-90
2021/05/02 23:07:06;;;;;;;0.95;0.80;;;;;;;6.69;36.63;92597.63;6248209;22;20108;-91
2021/05/02 23:09:57;;;;;;;0.93;0.80;;;;;;;6.52;36.89;92564.06;6230515;22;20052;-91
2021/05/02 23:12:54;;;;;;;1.80;1.00;;;;;;;6.51;37.05;92569.50;6251890;22;20020;-90
2021/05/02 23:15:54;;;;;;;;;;;;;;;;;;;;;
2021/05/02 23:18:59;;;;;;;0.70;0.70;;;;;;;6.42;37.56;92579.66;6151638;22;20410;-90
2021/05/02 23:21:52;;;;;;;0.70;0.70;;;;;;;6.35;36.78;92572.09;6247399;22;20043;-90
2021/05/02 23:24:53;;;;;;;1.20;0.85;;;;;;;6.49;36.60;92579.41;6251828;22;20019;-90
2021/05/02 23:28:03;;;;;;;1.13;0.68;;;;;;;6.66;36.45;92604.16;6226334;22;20020;-91
2021/05/02 23:31:12;;;;;;;;;;;;;;;;;;;;;
2021/05/02 23:34:19;;;;;;;1.20;0.90;;;;;;;6.65;36.66;92596.59;6272298;22;20026;-91
2021/05/02 23:37:15;;;;;;;0.90;0.80;;;;;;;6.51;37.90;92598.13;6249501;22;20050;-90
2021/05/02 23:40:36;;;;;;;;;;;;;;;;;;;;;
2021/05/02 23:43:22;;;;;;;1.10;0.85;;;;;;;6.32;38.68;92608.22;6274577;22;20019;-89
2021/05/02 23:45:54;;;;;;;1.38;0.80;;;;;;;6.32;38.04;92611.59;6249931;22;20383;-90
2021/05/02 23:48:55;;;;;;;;;;;;;;;;;;;;;
2021/05/02 23:51:48;;;;;;;1.02;0.77;;;;;;;6.21;38.03;92603.03;6276532;22;20096;-89
2021/05/02 23:54:48;;;;;;;1.15;0.88;;;;;;;6.37;36.95;92608.22;6254071;22;20095;-91
2021/05/02 23:57:39;;;;;;;;;;;;;;;;;;;;;
